sensor_id;sensor_type;location;lat;lon;timestamp;P1;durP1;ratioP1;P2;durP2;ratioP2
78581;SDS011;67878;46.242;5.974;2024-02-14T00:02:20;5.90;;;4.00;;
78581;SDS011;67878;46.242;5.974;2024-02-14T00:04:46;4.93;;;3.50;;
78581;SDS011;67878;46.242;5.974;2024-02-14T00:07:11;4.28;;;3.88;;
78581;SDS011;67878;46.242;5.974;2024-02-14T00:09:36;4.53;;;3.72;;
78581;SDS011;67878;46.242;5.974;2024-02-14T00:12:02;5.53;;;3.60;;
78581;SDS011;67878;46.242;5.974;2024-02-14T00:14:27;4.53;;;3.35;;
78581;SDS011;67878;46.242;5.974;2024-02-14T00:16:53;4.03;;;3.33;;
78581;SDS011;67878;46.242;5.974;2024-02-14T00:19:18;5.50;;;3.85;;
78581;SDS011;67878;46.242;5.974;2024-02-14T00:21:44;4.00;;;3.25;;
78581;SDS011;67878;46.242;5.974;2024-02-14T00:24:09;4.35;;;3.08;;
78581;SDS011;67878;46.242;5.974;2024-02-14T00:26:35;4.47;;;3.00;;
78581;SDS011;67878;46.242;5.974;2024-02-14T00:29:00;4.65;;;3.45;;
78581;SDS011;67878;46.242;5.974;2024-02-14T00:31:26;4.57;;;3.25;;
78581;SDS011;67878;46.242;5.974;2024-02-14T00:33:51;4.18;;;2.83;;
78581;SDS011;67878;46.242;5.974;2024-02-14T00:36:17;5.10;;;3.35;;
78581;SDS011;67878;46.242;5.974;2024-02-14T00:38:42;5.95;;;3.40;;
78581;SDS011;67878;46.242;5.974;2024-02-14T00:41:08;4.35;;;3.28;;
78581;SDS011;67878;46.242;5.974;2024-02-14T00:43:36;4.60;;;3.22;;
78581;SDS011;67878;46.242;5.974;2024-02-14T00:46:01;4.13;;;2.90;;
78581;SDS011;67878;46.242;5.974;2024-02-14T00:48:26;3.72;;;3.20;;
78581;SDS011;67878;46.242;5.974;2024-02-14T00:50:52;3.70;;;2.78;;
78581;SDS011;67878;46.242;5.974;2024-02-14T00:53:17;3.97;;;3.10;;
78581;SDS011;67878;46.242;5.974;2024-02-14T00:55:43;4.35;;;3.10;;
78581;SDS011;67878;46.242;5.974;2024-02-14T00:58:09;4.90;;;3.40;;
78581;SDS011;67878;46.242;5.974;2024-02-14T01:00:35;3.92;;;3.30;;
78581;SDS011;67878;46.242;5.974;2024-02-14T01:03:00;5.15;;;3.25;;
78581;SDS011;67878;46.242;5.974;2024-02-14T01:05:25;4.03;;;3.17;;
78581;SDS011;67878;46.242;5.974;2024-02-14T01:07:51;3.83;;;2.97;;
78581;SDS011;67878;46.242;5.974;2024-02-14T01:10:19;3.60;;;2.72;;
78581;SDS011;67878;46.242;5.974;2024-02-14T01:12:44;5.43;;;2.83;;
78581;SDS011;67878;46.242;5.974;2024-02-14T01:15:09;4.07;;;3.17;;
78581;SDS011;67878;46.242;5.974;2024-02-14T01:17:35;4.32;;;3.05;;
78581;SDS011;67878;46.242;5.974;2024-02-14T01:20:01;3.22;;;2.72;;
78581;SDS011;67878;46.242;5.974;2024-02-14T01:22:27;3.85;;;2.72;;
78581;SDS011;67878;46.242;5.974;2024-02-14T01:24:53;3.40;;;2.78;;
78581;SDS011;67878;46.242;5.974;2024-02-14T01:27:19;3.05;;;2.75;;
78581;SDS011;67878;46.242;5.974;2024-02-14T01:29:47;4.55;;;2.70;;
78581;SDS011;67878;46.242;5.974;2024-02-14T01:32:13;5.43;;;2.90;;
78581;SDS011;67878;46.242;5.974;2024-02-14T01:34:38;3.22;;;2.30;;
78581;SDS011;67878;46.242;5.974;2024-02-14T01:37:04;3.97;;;2.83;;
78581;SDS011;67878;46.242;5.974;2024-02-14T01:39:29;3.42;;;2.60;;
78581;SDS011;67878;46.242;5.974;2024-02-14T01:41:56;4.18;;;2.80;;
78581;SDS011;67878;46.242;5.974;2024-02-14T01:44:21;3.08;;;2.22;;
78581;SDS011;67878;46.242;5.974;2024-02-14T01:46:47;3.85;;;2.72;;
78581;SDS011;67878;46.242;5.974;2024-02-14T01:49:12;4.22;;;2.58;;
78581;SDS011;67878;46.242;5.974;2024-02-14T01:51:39;4.25;;;2.22;;
78581;SDS011;67878;46.242;5.974;2024-02-14T01:54:07;3.95;;;2.42;;
78581;SDS011;67878;46.242;5.974;2024-02-14T01:56:33;3.05;;;2.40;;
78581;SDS011;67878;46.242;5.974;2024-02-14T01:58:59;3.47;;;2.50;;
78581;SDS011;67878;46.242;5.974;2024-02-14T02:01:26;3.38;;;2.22;;
78581;SDS011;67878;46.242;5.974;2024-02-14T02:03:51;2.90;;;2.40;;
78581;SDS011;67878;46.242;5.974;2024-02-14T02:06:17;3.47;;;2.50;;
78581;SDS011;67878;46.242;5.974;2024-02-14T02:08:43;3.55;;;2.58;;
78581;SDS011;67878;46.242;5.974;2024-02-14T02:11:09;3.40;;;2.53;;
78581;SDS011;67878;46.242;5.974;2024-02-14T02:13:34;3.83;;;2.85;;
78581;SDS011;67878;46.242;5.974;2024-02-14T02:16:00;3.13;;;2.47;;
78581;SDS011;67878;46.242;5.974;2024-02-14T02:18:30;2.95;;;2.40;;
78581;SDS011;67878;46.242;5.974;2024-02-14T02:20:56;3.08;;;2.35;;
78581;SDS011;67878;46.242;5.974;2024-02-14T02:23:22;4.95;;;2.60;;
78581;SDS011;67878;46.242;5.974;2024-02-14T02:25:48;3.80;;;2.42;;
78581;SDS011;67878;46.242;5.974;2024-02-14T02:28:15;2.97;;;2.25;;
78581;SDS011;67878;46.242;5.974;2024-02-14T02:30:41;3.03;;;2.45;;
78581;SDS011;67878;46.242;5.974;2024-02-14T02:33:06;3.10;;;2.20;;
78581;SDS011;67878;46.242;5.974;2024-02-14T02:35:32;3.25;;;2.65;;
78581;SDS011;67878;46.242;5.974;2024-02-14T02:37:59;3.53;;;2.40;;
78581;SDS011;67878;46.242;5.974;2024-02-14T02:40:24;3.47;;;2.22;;
78581;SDS011;67878;46.242;5.974;2024-02-14T02:42:52;3.17;;;2.40;;
78581;SDS011;67878;46.242;5.974;2024-02-14T02:45:17;2.90;;;2.40;;
78581;SDS011;67878;46.242;5.974;2024-02-14T02:47:43;4.57;;;2.72;;
78581;SDS011;67878;46.242;5.974;2024-02-14T02:50:08;5.63;;;2.50;;
78581;SDS011;67878;46.242;5.974;2024-02-14T02:52:34;3.60;;;2.35;;
78581;SDS011;67878;46.242;5.974;2024-02-14T02:55:00;5.00;;;2.30;;
78581;SDS011;67878;46.242;5.974;2024-02-14T02:57:26;4.68;;;1.98;;
78581;SDS011;67878;46.242;5.974;2024-02-14T02:59:52;3.35;;;2.20;;
78581;SDS011;67878;46.242;5.974;2024-02-14T03:02:19;3.45;;;2.50;;
78581;SDS011;67878;46.242;5.974;2024-02-14T03:04:45;3.83;;;2.00;;
78581;SDS011;67878;46.242;5.974;2024-02-14T03:07:11;3.97;;;2.20;;
78581;SDS011;67878;46.242;5.974;2024-02-14T03:09:37;3.45;;;1.95;;
78581;SDS011;67878;46.242;5.974;2024-02-14T03:12:03;3.13;;;2.15;;
78581;SDS011;67878;46.242;5.974;2024-02-14T03:14:32;2.45;;;1.67;;
78581;SDS011;67878;46.242;5.974;2024-02-14T03:17:00;2.90;;;1.90;;
78581;SDS011;67878;46.242;5.974;2024-02-14T03:19:29;3.33;;;2.03;;
78581;SDS011;67878;46.242;5.974;2024-02-14T03:21:55;4.78;;;2.33;;
78581;SDS011;67878;46.242;5.974;2024-02-14T03:24:21;3.15;;;2.20;;
78581;SDS011;67878;46.242;5.974;2024-02-14T03:26:46;3.60;;;2.17;;
78581;SDS011;67878;46.242;5.974;2024-02-14T03:29:12;4.72;;;2.00;;
78581;SDS011;67878;46.242;5.974;2024-02-14T03:31:38;4.60;;;2.17;;
78581;SDS011;67878;46.242;5.974;2024-02-14T03:34:04;5.68;;;2.50;;
78581;SDS011;67878;46.242;5.974;2024-02-14T03:36:30;3.13;;;1.92;;
78581;SDS011;67878;46.242;5.974;2024-02-14T03:38:56;3.05;;;1.70;;
78581;SDS011;67878;46.242;5.974;2024-02-14T03:41:22;3.10;;;1.80;;
78581;SDS011;67878;46.242;5.974;2024-02-14T03:43:47;4.40;;;2.35;;
78581;SDS011;67878;46.242;5.974;2024-02-14T03:46:14;3.17;;;1.90;;
78581;SDS011;67878;46.242;5.974;2024-02-14T03:48:40;3.45;;;1.73;;
78581;SDS011;67878;46.242;5.974;2024-02-14T03:51:06;4.18;;;2.05;;
78581;SDS011;67878;46.242;5.974;2024-02-14T03:53:32;3.95;;;1.95;;
78581;SDS011;67878;46.242;5.974;2024-02-14T03:55:58;2.53;;;1.60;;
78581;SDS011;67878;46.242;5.974;2024-02-14T03:58:23;2.50;;;1.75;;
78581;SDS011;67878;46.242;5.974;2024-02-14T04:00:52;2.45;;;2.05;;
78581;SDS011;67878;46.242;5.974;2024-02-14T04:05:43;1.95;;;1.70;;
78581;SDS011;67878;46.242;5.974;2024-02-14T04:08:08;3.85;;;1.92;;
78581;SDS011;67878;46.242;5.974;2024-02-14T04:10:35;4.10;;;1.67;;
78581;SDS011;67878;46.242;5.974;2024-02-14T04:13:03;2.80;;;1.75;;
78581;SDS011;67878;46.242;5.974;2024-02-14T04:15:29;4.55;;;1.80;;
78581;SDS011;67878;46.242;5.974;2024-02-14T04:17:56;3.75;;;1.67;;
78581;SDS011;67878;46.242;5.974;2024-02-14T04:20:23;2.30;;;1.63;;
78581;SDS011;67878;46.242;5.974;2024-02-14T04:22:48;1.95;;;1.48;;
78581;SDS011;67878;46.242;5.974;2024-02-14T04:25:14;2.50;;;1.60;;
78581;SDS011;67878;46.242;5.974;2024-02-14T04:27:40;3.08;;;1.60;;
78581;SDS011;67878;46.242;5.974;2024-02-14T04:30:05;2.20;;;1.83;;
78581;SDS011;67878;46.242;5.974;2024-02-14T04:32:31;3.72;;;1.60;;
78581;SDS011;67878;46.242;5.974;2024-02-14T04:34:56;3.50;;;1.73;;
78581;SDS011;67878;46.242;5.974;2024-02-14T04:37:23;2.13;;;1.50;;
78581;SDS011;67878;46.242;5.974;2024-02-14T04:39:48;2.63;;;1.80;;
78581;SDS011;67878;46.242;5.974;2024-02-14T04:42:14;2.47;;;1.60;;
78581;SDS011;67878;46.242;5.974;2024-02-14T04:44:39;2.28;;;1.85;;
78581;SDS011;67878;46.242;5.974;2024-02-14T04:47:05;2.78;;;2.10;;
78581;SDS011;67878;46.242;5.974;2024-02-14T04:49:30;2.90;;;1.77;;
78581;SDS011;67878;46.242;5.974;2024-02-14T04:51:56;2.58;;;1.55;;
78581;SDS011;67878;46.242;5.974;2024-02-14T04:54:22;1.52;;;1.30;;
78581;SDS011;67878;46.242;5.974;2024-02-14T04:56:48;2.40;;;1.70;;
78581;SDS011;67878;46.242;5.974;2024-02-14T04:59:13;2.55;;;1.52;;
78581;SDS011;67878;46.242;5.974;2024-02-14T05:01:38;2.58;;;1.33;;
78581;SDS011;67878;46.242;5.974;2024-02-14T05:04:05;1.58;;;1.20;;
78581;SDS011;67878;46.242;5.974;2024-02-14T05:06:31;1.58;;;1.40;;
78581;SDS011;67878;46.242;5.974;2024-02-14T05:08:57;2.10;;;1.60;;
78581;SDS011;67878;46.242;5.974;2024-02-14T05:11:23;2.22;;;1.55;;
78581;SDS011;67878;46.242;5.974;2024-02-14T05:13:48;2.28;;;1.30;;
78581;SDS011;67878;46.242;5.974;2024-02-14T05:16:17;1.85;;;1.27;;
78581;SDS011;67878;46.242;5.974;2024-02-14T05:18:43;1.67;;;1.30;;
78581;SDS011;67878;46.242;5.974;2024-02-14T05:21:08;2.10;;;1.58;;
78581;SDS011;67878;46.242;5.974;2024-02-14T05:23:34;2.15;;;1.70;;
78581;SDS011;67878;46.242;5.974;2024-02-14T05:26:01;1.80;;;1.50;;
78581;SDS011;67878;46.242;5.974;2024-02-14T05:28:28;1.98;;;1.40;;
78581;SDS011;67878;46.242;5.974;2024-02-14T05:30:54;1.98;;;1.48;;
78581;SDS011;67878;46.242;5.974;2024-02-14T05:33:20;2.47;;;1.40;;
78581;SDS011;67878;46.242;5.974;2024-02-14T05:35:49;1.90;;;1.50;;
78581;SDS011;67878;46.242;5.974;2024-02-14T05:38:15;1.60;;;1.27;;
78581;SDS011;67878;46.242;5.974;2024-02-14T05:40:42;1.88;;;1.50;;
78581;SDS011;67878;46.242;5.974;2024-02-14T05:43:10;2.13;;;1.38;;
78581;SDS011;67878;46.242;5.974;2024-02-14T05:45:35;3.05;;;1.55;;
78581;SDS011;67878;46.242;5.974;2024-02-14T05:48:01;1.80;;;1.40;;
78581;SDS011;67878;46.242;5.974;2024-02-14T05:50:27;1.40;;;1.20;;
78581;SDS011;67878;46.242;5.974;2024-02-14T05:52:53;1.90;;;1.30;;
78581;SDS011;67878;46.242;5.974;2024-02-14T05:55:18;6.50;;;2.10;;
78581;SDS011;67878;46.242;5.974;2024-02-14T05:57:44;1.27;;;1.15;;
78581;SDS011;67878;46.242;5.974;2024-02-14T06:00:09;1.58;;;1.40;;
78581;SDS011;67878;46.242;5.974;2024-02-14T06:02:35;2.83;;;1.17;;
78581;SDS011;67878;46.242;5.974;2024-02-14T06:05:01;1.73;;;1.25;;
78581;SDS011;67878;46.242;5.974;2024-02-14T06:07:26;1.45;;;1.35;;
78581;SDS011;67878;46.242;5.974;2024-02-14T06:09:53;1.50;;;1.10;;
78581;SDS011;67878;46.242;5.974;2024-02-14T06:12:18;1.48;;;1.27;;
78581;SDS011;67878;46.242;5.974;2024-02-14T06:14:44;2.53;;;1.95;;
78581;SDS011;67878;46.242;5.974;2024-02-14T06:17:12;2.63;;;1.73;;
78581;SDS011;67878;46.242;5.974;2024-02-14T06:19:38;2.40;;;1.63;;
78581;SDS011;67878;46.242;5.974;2024-02-14T06:22:04;3.30;;;1.60;;
78581;SDS011;67878;46.242;5.974;2024-02-14T06:24:29;2.63;;;1.70;;
78581;SDS011;67878;46.242;5.974;2024-02-14T06:26:58;3.17;;;1.58;;
78581;SDS011;67878;46.242;5.974;2024-02-14T06:29:23;2.20;;;1.80;;
78581;SDS011;67878;46.242;5.974;2024-02-14T06:31:49;2.70;;;1.90;;
78581;SDS011;67878;46.242;5.974;2024-02-14T06:34:15;1.70;;;1.35;;
78581;SDS011;67878;46.242;5.974;2024-02-14T06:36:41;2.08;;;1.50;;
78581;SDS011;67878;46.242;5.974;2024-02-14T06:39:06;2.08;;;1.67;;
78581;SDS011;67878;46.242;5.974;2024-02-14T06:41:33;1.88;;;1.38;;
78581;SDS011;67878;46.242;5.974;2024-02-14T06:43:59;1.58;;;1.05;;
78581;SDS011;67878;46.242;5.974;2024-02-14T06:46:26;2.35;;;1.45;;
78581;SDS011;67878;46.242;5.974;2024-02-14T06:48:52;1.55;;;1.25;;
78581;SDS011;67878;46.242;5.974;2024-02-14T06:51:17;2.33;;;1.08;;
78581;SDS011;67878;46.242;5.974;2024-02-14T06:53:43;3.45;;;1.38;;
78581;SDS011;67878;46.242;5.974;2024-02-14T06:56:08;2.75;;;1.60;;
78581;SDS011;67878;46.242;5.974;2024-02-14T06:58:34;1.80;;;1.40;;
78581;SDS011;67878;46.242;5.974;2024-02-14T07:00:59;2.40;;;1.30;;
78581;SDS011;67878;46.242;5.974;2024-02-14T07:03:24;2.70;;;1.40;;
78581;SDS011;67878;46.242;5.974;2024-02-14T07:05:50;1.95;;;1.40;;
78581;SDS011;67878;46.242;5.974;2024-02-14T07:08:16;2.22;;;1.33;;
78581;SDS011;67878;46.242;5.974;2024-02-14T07:10:42;2.42;;;1.17;;
78581;SDS011;67878;46.242;5.974;2024-02-14T07:13:07;3.08;;;1.45;;
78581;SDS011;67878;46.242;5.974;2024-02-14T07:15:33;2.60;;;1.50;;
78581;SDS011;67878;46.242;5.974;2024-02-14T07:17:58;4.07;;;1.40;;
78581;SDS011;67878;46.242;5.974;2024-02-14T07:20:24;2.58;;;1.45;;
78581;SDS011;67878;46.242;5.974;2024-02-14T07:22:52;1.52;;;1.10;;
78581;SDS011;67878;46.242;5.974;2024-02-14T07:25:18;5.60;;;1.30;;
78581;SDS011;67878;46.242;5.974;2024-02-14T07:27:44;4.20;;;1.63;;
78581;SDS011;67878;46.242;5.974;2024-02-14T07:30:11;3.25;;;1.38;;
78581;SDS011;67878;46.242;5.974;2024-02-14T07:32:37;2.95;;;1.55;;
78581;SDS011;67878;46.242;5.974;2024-02-14T07:35:04;2.05;;;1.30;;
78581;SDS011;67878;46.242;5.974;2024-02-14T07:37:38;1.77;;;1.20;;
78581;SDS011;67878;46.242;5.974;2024-02-14T07:40:04;3.22;;;1.50;;
78581;SDS011;67878;46.242;5.974;2024-02-14T07:42:30;2.80;;;1.42;;
78581;SDS011;67878;46.242;5.974;2024-02-14T07:44:56;2.80;;;1.52;;
78581;SDS011;67878;46.242;5.974;2024-02-14T07:47:22;3.15;;;1.30;;
78581;SDS011;67878;46.242;5.974;2024-02-14T07:49:47;2.50;;;1.30;;
78581;SDS011;67878;46.242;5.974;2024-02-14T07:52:13;3.17;;;1.50;;
78581;SDS011;67878;46.242;5.974;2024-02-14T07:54:39;3.72;;;1.52;;
78581;SDS011;67878;46.242;5.974;2024-02-14T07:57:05;2.85;;;1.60;;
78581;SDS011;67878;46.242;5.974;2024-02-14T07:59:30;2.97;;;1.70;;
78581;SDS011;67878;46.242;5.974;2024-02-14T08:01:59;2.33;;;2.10;;
78581;SDS011;67878;46.242;5.974;2024-02-14T08:04:25;2.47;;;1.45;;
78581;SDS011;67878;46.242;5.974;2024-02-14T08:06:51;3.30;;;2.10;;
78581;SDS011;67878;46.242;5.974;2024-02-14T08:09:17;3.28;;;1.88;;
78581;SDS011;67878;46.242;5.974;2024-02-14T08:11:42;2.95;;;1.80;;
78581;SDS011;67878;46.242;5.974;2024-02-14T08:14:08;3.00;;;1.95;;
78581;SDS011;67878;46.242;5.974;2024-02-14T08:16:33;2.90;;;1.85;;
78581;SDS011;67878;46.242;5.974;2024-02-14T08:18:59;4.00;;;1.88;;
78581;SDS011;67878;46.242;5.974;2024-02-14T08:21:25;3.08;;;1.58;;
78581;SDS011;67878;46.242;5.974;2024-02-14T08:23:51;2.88;;;1.98;;
78581;SDS011;67878;46.242;5.974;2024-02-14T08:26:17;2.78;;;1.55;;
78581;SDS011;67878;46.242;5.974;2024-02-14T08:28:43;4.30;;;1.58;;
78581;SDS011;67878;46.242;5.974;2024-02-14T08:31:11;8.80;;;2.60;;
78581;SDS011;67878;46.242;5.974;2024-02-14T08:33:37;5.95;;;2.33;;
78581;SDS011;67878;46.242;5.974;2024-02-14T08:36:03;3.25;;;2.08;;
78581;SDS011;67878;46.242;5.974;2024-02-14T08:38:34;5.40;;;2.03;;
78581;SDS011;67878;46.242;5.974;2024-02-14T08:41:00;3.08;;;1.90;;
78581;SDS011;67878;46.242;5.974;2024-02-14T08:43:26;4.07;;;1.90;;
78581;SDS011;67878;46.242;5.974;2024-02-14T08:45:53;5.68;;;2.20;;
78581;SDS011;67878;46.242;5.974;2024-02-14T08:48:21;3.28;;;1.65;;
78581;SDS011;67878;46.242;5.974;2024-02-14T08:50:47;2.72;;;1.75;;
78581;SDS011;67878;46.242;5.974;2024-02-14T08:53:13;3.28;;;1.83;;
78581;SDS011;67878;46.242;5.974;2024-02-14T08:55:42;2.67;;;1.88;;
78581;SDS011;67878;46.242;5.974;2024-02-14T08:58:07;4.25;;;2.05;;
78581;SDS011;67878;46.242;5.974;2024-02-14T09:00:37;2.65;;;2.00;;
78581;SDS011;67878;46.242;5.974;2024-02-14T09:03:04;4.70;;;2.00;;
78581;SDS011;67878;46.242;5.974;2024-02-14T09:05:31;3.17;;;1.80;;
78581;SDS011;67878;46.242;5.974;2024-02-14T09:07:58;4.35;;;1.95;;
78581;SDS011;67878;46.242;5.974;2024-02-14T09:10:26;3.78;;;1.75;;
78581;SDS011;67878;46.242;5.974;2024-02-14T09:12:56;3.17;;;2.25;;
78581;SDS011;67878;46.242;5.974;2024-02-14T09:15:22;3.15;;;2.28;;
78581;SDS011;67878;46.242;5.974;2024-02-14T09:17:47;3.55;;;2.88;;
78581;SDS011;67878;46.242;5.974;2024-02-14T09:20:13;3.80;;;2.42;;
78581;SDS011;67878;46.242;5.974;2024-02-14T09:22:39;2.20;;;2.00;;
78581;SDS011;67878;46.242;5.974;2024-02-14T09:25:06;3.28;;;2.40;;
78581;SDS011;67878;46.242;5.974;2024-02-14T09:27:33;2.88;;;2.20;;
78581;SDS011;67878;46.242;5.974;2024-02-14T09:30:00;2.58;;;1.95;;
78581;SDS011;67878;46.242;5.974;2024-02-14T09:32:26;3.05;;;2.28;;
78581;SDS011;67878;46.242;5.974;2024-02-14T09:34:51;2.75;;;2.08;;
78581;SDS011;67878;46.242;5.974;2024-02-14T09:37:16;3.03;;;2.30;;
78581;SDS011;67878;46.242;5.974;2024-02-14T09:39:42;3.83;;;2.35;;
78581;SDS011;67878;46.242;5.974;2024-02-14T09:42:12;2.80;;;2.40;;
78581;SDS011;67878;46.242;5.974;2024-02-14T09:44:41;2.05;;;1.60;;
78581;SDS011;67878;46.242;5.974;2024-02-14T09:47:08;3.25;;;2.00;;
78581;SDS011;67878;46.242;5.974;2024-02-14T09:49:34;2.63;;;1.90;;
78581;SDS011;67878;46.242;5.974;2024-02-14T09:52:01;3.22;;;1.70;;
78581;SDS011;67878;46.242;5.974;2024-02-14T09:54:28;2.88;;;2.30;;
78581;SDS011;67878;46.242;5.974;2024-02-14T09:56:55;3.03;;;1.83;;
78581;SDS011;67878;46.242;5.974;2024-02-14T09:59:24;3.15;;;1.80;;
78581;SDS011;67878;46.242;5.974;2024-02-14T10:01:52;2.45;;;1.35;;
78581;SDS011;67878;46.242;5.974;2024-02-14T10:04:19;2.83;;;1.85;;
78581;SDS011;67878;46.242;5.974;2024-02-14T10:06:49;3.70;;;1.80;;
78581;SDS011;67878;46.242;5.974;2024-02-14T10:09:21;2.10;;;1.38;;
78581;SDS011;67878;46.242;5.974;2024-02-14T10:11:47;3.53;;;1.63;;
78581;SDS011;67878;46.242;5.974;2024-02-14T10:14:13;1.70;;;1.30;;
78581;SDS011;67878;46.242;5.974;2024-02-14T10:16:39;1.75;;;1.23;;
78581;SDS011;67878;46.242;5.974;2024-02-14T10:19:05;2.10;;;1.30;;
78581;SDS011;67878;46.242;5.974;2024-02-14T10:21:33;3.58;;;1.65;;
78581;SDS011;67878;46.242;5.974;2024-02-14T10:24:01;1.98;;;1.40;;
78581;SDS011;67878;46.242;5.974;2024-02-14T10:26:28;2.40;;;1.60;;
78581;SDS011;67878;46.242;5.974;2024-02-14T10:28:56;2.25;;;1.50;;
78581;SDS011;67878;46.242;5.974;2024-02-14T10:31:24;3.20;;;1.60;;
78581;SDS011;67878;46.242;5.974;2024-02-14T10:33:50;1.42;;;1.33;;
78581;SDS011;67878;46.242;5.974;2024-02-14T10:36:17;2.60;;;1.50;;
78581;SDS011;67878;46.242;5.974;2024-02-14T10:38:45;1.92;;;1.33;;
78581;SDS011;67878;46.242;5.974;2024-02-14T10:41:14;1.60;;;1.20;;
78581;SDS011;67878;46.242;5.974;2024-02-14T10:43:42;1.77;;;1.40;;
78581;SDS011;67878;46.242;5.974;2024-02-14T10:46:19;2.67;;;1.42;;
78581;SDS011;67878;46.242;5.974;2024-02-14T10:48:46;1.77;;;1.20;;
78581;SDS011;67878;46.242;5.974;2024-02-14T10:51:12;1.45;;;1.10;;
78581;SDS011;67878;46.242;5.974;2024-02-14T10:53:40;2.00;;;1.30;;
78581;SDS011;67878;46.242;5.974;2024-02-14T10:56:10;1.60;;;1.42;;
78581;SDS011;67878;46.242;5.974;2024-02-14T10:58:41;1.83;;;1.33;;
78581;SDS011;67878;46.242;5.974;2024-02-14T11:01:09;2.53;;;1.30;;
78581;SDS011;67878;46.242;5.974;2024-02-14T11:03:34;1.80;;;1.20;;
78581;SDS011;67878;46.242;5.974;2024-02-14T11:06:03;1.65;;;1.20;;
78581;SDS011;67878;46.242;5.974;2024-02-14T11:08:29;1.73;;;1.20;;
78581;SDS011;67878;46.242;5.974;2024-02-14T11:10:59;1.85;;;1.30;;
78581;SDS011;67878;46.242;5.974;2024-02-14T11:13:35;2.15;;;1.20;;
78581;SDS011;67878;46.242;5.974;2024-02-14T11:16:01;1.55;;;1.20;;
78581;SDS011;67878;46.242;5.974;2024-02-14T11:18:28;1.80;;;1.40;;
78581;SDS011;67878;46.242;5.974;2024-02-14T11:21:03;1.63;;;1.08;;
78581;SDS011;67878;46.242;5.974;2024-02-14T11:23:29;1.70;;;1.20;;
78581;SDS011;67878;46.242;5.974;2024-02-14T11:26:02;1.73;;;1.20;;
78581;SDS011;67878;46.242;5.974;2024-02-14T11:28:29;1.33;;;1.00;;
78581;SDS011;67878;46.242;5.974;2024-02-14T11:30:58;2.08;;;1.50;;
78581;SDS011;67878;46.242;5.974;2024-02-14T11:33:26;1.83;;;1.42;;
78581;SDS011;67878;46.242;5.974;2024-02-14T11:35:51;1.77;;;1.27;;
78581;SDS011;67878;46.242;5.974;2024-02-14T11:38:18;2.08;;;1.33;;
78581;SDS011;67878;46.242;5.974;2024-02-14T11:40:44;1.98;;;1.40;;
78581;SDS011;67878;46.242;5.974;2024-02-14T11:43:14;2.22;;;1.17;;
78581;SDS011;67878;46.242;5.974;2024-02-14T11:45:42;2.00;;;1.40;;
78581;SDS011;67878;46.242;5.974;2024-02-14T11:48:11;1.95;;;1.40;;
78581;SDS011;67878;46.242;5.974;2024-02-14T11:50:41;1.70;;;1.13;;
78581;SDS011;67878;46.242;5.974;2024-02-14T11:53:08;1.10;;;1.00;;
78581;SDS011;67878;46.242;5.974;2024-02-14T11:55:36;1.83;;;1.30;;
78581;SDS011;67878;46.242;5.974;2024-02-14T11:58:09;1.45;;;1.35;;
78581;SDS011;67878;46.242;5.974;2024-02-14T12:00:36;1.92;;;1.38;;
78581;SDS011;67878;46.242;5.974;2024-02-14T12:03:03;1.40;;;1.13;;
78581;SDS011;67878;46.242;5.974;2024-02-14T12:05:32;2.70;;;1.50;;
78581;SDS011;67878;46.242;5.974;2024-02-14T12:07:58;1.75;;;1.20;;
78581;SDS011;67878;46.242;5.974;2024-02-14T12:10:24;1.55;;;1.20;;
78581;SDS011;67878;46.242;5.974;2024-02-14T12:12:50;1.67;;;1.30;;
78581;SDS011;67878;46.242;5.974;2024-02-14T12:15:16;2.05;;;1.10;;
78581;SDS011;67878;46.242;5.974;2024-02-14T12:17:41;1.13;;;1.00;;
78581;SDS011;67878;46.242;5.974;2024-02-14T12:20:10;1.90;;;1.25;;
78581;SDS011;67878;46.242;5.974;2024-02-14T12:22:39;1.35;;;1.20;;
78581;SDS011;67878;46.242;5.974;2024-02-14T12:25:06;1.30;;;1.20;;
78581;SDS011;67878;46.242;5.974;2024-02-14T12:27:33;1.63;;;1.00;;
78581;SDS011;67878;46.242;5.974;2024-02-14T12:29:59;1.88;;;1.50;;
78581;SDS011;67878;46.242;5.974;2024-02-14T12:32:28;2.72;;;1.35;;
78581;SDS011;67878;46.242;5.974;2024-02-14T12:34:55;1.70;;;1.13;;
78581;SDS011;67878;46.242;5.974;2024-02-14T12:37:22;1.65;;;1.17;;
78581;SDS011;67878;46.242;5.974;2024-02-14T12:39:47;1.55;;;1.00;;
78581;SDS011;67878;46.242;5.974;2024-02-14T12:42:13;1.65;;;1.50;;
78581;SDS011;67878;46.242;5.974;2024-02-14T12:44:39;1.50;;;1.20;;
78581;SDS011;67878;46.242;5.974;2024-02-14T12:47:05;1.83;;;1.10;;
78581;SDS011;67878;46.242;5.974;2024-02-14T12:49:31;2.20;;;1.20;;
78581;SDS011;67878;46.242;5.974;2024-02-14T12:52:04;1.63;;;1.10;;
78581;SDS011;67878;46.242;5.974;2024-02-14T12:54:29;1.23;;;1.02;;
78581;SDS011;67878;46.242;5.974;2024-02-14T12:56:55;1.33;;;1.10;;
78581;SDS011;67878;46.242;5.974;2024-02-14T12:59:20;1.48;;;1.15;;
78581;SDS011;67878;46.242;5.974;2024-02-14T13:01:45;1.95;;;1.20;;
78581;SDS011;67878;46.242;5.974;2024-02-14T13:04:12;1.77;;;1.30;;
78581;SDS011;67878;46.242;5.974;2024-02-14T13:06:39;1.65;;;1.10;;
78581;SDS011;67878;46.242;5.974;2024-02-14T13:09:05;1.63;;;1.10;;
78581;SDS011;67878;46.242;5.974;2024-02-14T13:11:31;1.60;;;1.20;;
78581;SDS011;67878;46.242;5.974;2024-02-14T13:13:57;1.52;;;1.20;;
78581;SDS011;67878;46.242;5.974;2024-02-14T13:16:23;1.33;;;1.23;;
78581;SDS011;67878;46.242;5.974;2024-02-14T13:18:49;1.80;;;1.02;;
78581;SDS011;67878;46.242;5.974;2024-02-14T13:21:14;1.23;;;0.95;;
78581;SDS011;67878;46.242;5.974;2024-02-14T13:23:41;1.80;;;1.33;;
78581;SDS011;67878;46.242;5.974;2024-02-14T13:26:07;1.70;;;1.10;;
78581;SDS011;67878;46.242;5.974;2024-02-14T13:28:32;1.52;;;1.10;;
78581;SDS011;67878;46.242;5.974;2024-02-14T13:30:58;1.73;;;1.10;;
78581;SDS011;67878;46.242;5.974;2024-02-14T13:33:24;1.85;;;1.10;;
78581;SDS011;67878;46.242;5.974;2024-02-14T13:35:49;1.88;;;1.20;;
78581;SDS011;67878;46.242;5.974;2024-02-14T13:38:15;1.65;;;1.45;;
78581;SDS011;67878;46.242;5.974;2024-02-14T13:40:41;1.77;;;1.15;;
78581;SDS011;67878;46.242;5.974;2024-02-14T13:43:06;1.52;;;0.98;;
78581;SDS011;67878;46.242;5.974;2024-02-14T13:45:42;1.30;;;1.20;;
78581;SDS011;67878;46.242;5.974;2024-02-14T13:48:09;1.55;;;1.10;;
78581;SDS011;67878;46.242;5.974;2024-02-14T13:50:35;1.75;;;1.27;;
78581;SDS011;67878;46.242;5.974;2024-02-14T13:53:01;3.08;;;1.23;;
78581;SDS011;67878;46.242;5.974;2024-02-14T13:55:26;2.33;;;1.40;;
78581;SDS011;67878;46.242;5.974;2024-02-14T13:57:52;1.95;;;1.33;;
78581;SDS011;67878;46.242;5.974;2024-02-14T14:00:17;2.33;;;1.20;;
78581;SDS011;67878;46.242;5.974;2024-02-14T14:02:42;1.20;;;1.05;;
78581;SDS011;67878;46.242;5.974;2024-02-14T14:05:09;2.30;;;1.25;;
78581;SDS011;67878;46.242;5.974;2024-02-14T14:07:38;2.05;;;1.48;;
78581;SDS011;67878;46.242;5.974;2024-02-14T14:10:08;1.73;;;1.30;;
78581;SDS011;67878;46.242;5.974;2024-02-14T14:12:34;2.10;;;1.55;;
78581;SDS011;67878;46.242;5.974;2024-02-14T14:15:00;1.80;;;1.20;;
78581;SDS011;67878;46.242;5.974;2024-02-14T14:17:26;1.58;;;1.30;;
78581;SDS011;67878;46.242;5.974;2024-02-14T14:19:52;2.53;;;1.20;;
78581;SDS011;67878;46.242;5.974;2024-02-14T14:22:18;1.70;;;1.27;;
78581;SDS011;67878;46.242;5.974;2024-02-14T14:24:43;2.20;;;1.23;;
78581;SDS011;67878;46.242;5.974;2024-02-14T14:27:09;1.90;;;1.25;;
78581;SDS011;67878;46.242;5.974;2024-02-14T14:29:42;1.83;;;1.50;;
78581;SDS011;67878;46.242;5.974;2024-02-14T14:32:08;1.90;;;1.20;;
78581;SDS011;67878;46.242;5.974;2024-02-14T14:34:34;2.00;;;1.05;;
78581;SDS011;67878;46.242;5.974;2024-02-14T14:37:00;2.03;;;1.33;;
78581;SDS011;67878;46.242;5.974;2024-02-14T14:39:26;2.22;;;1.38;;
78581;SDS011;67878;46.242;5.974;2024-02-14T14:41:51;1.30;;;1.08;;
78581;SDS011;67878;46.242;5.974;2024-02-14T14:44:18;1.55;;;1.15;;
78581;SDS011;67878;46.242;5.974;2024-02-14T14:46:44;1.77;;;1.30;;